sensor_id;sensor_type;location;lat;lon;timestamp;P1;durP1;ratioP1;P2;durP2;ratioP2
67981;SDS011;64109;52.148;4.466;2023-02-15T00:00:21;19.98;;;13.23;;
67981;SDS011;64109;52.148;4.466;2023-02-15T00:02:47;21.30;;;13.60;;
67981;SDS011;64109;52.148;4.466;2023-02-15T00:05:13;21.23;;;15.32;;
67981;SDS011;64109;52.148;4.466;2023-02-15T00:07:39;20.08;;;12.90;;
67981;SDS011;64109;52.148;4.466;2023-02-15T00:10:06;20.45;;;12.68;;
67981;SDS011;64109;52.148;4.466;2023-02-15T00:12:32;18.98;;;12.05;;
67981;SDS011;64109;52.148;4.466;2023-02-15T00:14:58;24.00;;;14.48;;
67981;SDS011;64109;52.148;4.466;2023-02-15T00:17:26;22.33;;;12.70;;
67981;SDS011;64109;52.148;4.466;2023-02-15T00:19:52;20.58;;;12.95;;
67981;SDS011;64109;52.148;4.466;2023-02-15T00:22:18;22.48;;;13.77;;
67981;SDS011;64109;52.148;4.466;2023-02-15T00:24:44;18.75;;;12.73;;
67981;SDS011;64109;52.148;4.466;2023-02-15T00:27:10;19.27;;;12.65;;
67981;SDS011;64109;52.148;4.466;2023-02-15T00:29:36;19.85;;;12.30;;
67981;SDS011;64109;52.148;4.466;2023-02-15T00:32:03;21.48;;;14.43;;
67981;SDS011;64109;52.148;4.466;2023-02-15T00:34:29;20.42;;;12.18;;
67981;SDS011;64109;52.148;4.466;2023-02-15T00:36:55;21.33;;;12.88;;
67981;SDS011;64109;52.148;4.466;2023-02-15T00:39:21;20.88;;;13.35;;
67981;SDS011;64109;52.148;4.466;2023-02-15T00:41:48;20.45;;;13.23;;
67981;SDS011;64109;52.148;4.466;2023-02-15T00:44:15;20.60;;;13.18;;
67981;SDS011;64109;52.148;4.466;2023-02-15T00:46:41;20.30;;;12.82;;
67981;SDS011;64109;52.148;4.466;2023-02-15T00:49:07;19.38;;;12.05;;
67981;SDS011;64109;52.148;4.466;2023-02-15T00:51:33;18.48;;;11.77;;
67981;SDS011;64109;52.148;4.466;2023-02-15T00:53:59;18.48;;;11.55;;
67981;SDS011;64109;52.148;4.466;2023-02-15T00:56:25;21.17;;;12.20;;
67981;SDS011;64109;52.148;4.466;2023-02-15T00:58:53;19.15;;;12.02;;
67981;SDS011;64109;52.148;4.466;2023-02-15T01:01:19;18.73;;;12.18;;
67981;SDS011;64109;52.148;4.466;2023-02-15T01:03:46;19.20;;;11.95;;
67981;SDS011;64109;52.148;4.466;2023-02-15T01:06:12;18.50;;;11.00;;
67981;SDS011;64109;52.148;4.466;2023-02-15T01:08:38;19.05;;;12.93;;
67981;SDS011;64109;52.148;4.466;2023-02-15T01:11:06;17.30;;;11.57;;
67981;SDS011;64109;52.148;4.466;2023-02-15T01:13:32;19.20;;;12.68;;
67981;SDS011;64109;52.148;4.466;2023-02-15T01:15:59;18.85;;;13.05;;
67981;SDS011;64109;52.148;4.466;2023-02-15T01:18:25;17.38;;;11.57;;
67981;SDS011;64109;52.148;4.466;2023-02-15T01:20:51;19.92;;;15.10;;
67981;SDS011;64109;52.148;4.466;2023-02-15T01:23:17;17.45;;;11.90;;
67981;SDS011;64109;52.148;4.466;2023-02-15T01:25:43;20.25;;;13.00;;
67981;SDS011;64109;52.148;4.466;2023-02-15T01:28:09;17.08;;;10.75;;
67981;SDS011;64109;52.148;4.466;2023-02-15T01:30:35;17.15;;;11.40;;
67981;SDS011;64109;52.148;4.466;2023-02-15T01:33:01;21.20;;;12.52;;
67981;SDS011;64109;52.148;4.466;2023-02-15T01:35:27;20.10;;;12.30;;
67981;SDS011;64109;52.148;4.466;2023-02-15T01:37:55;19.35;;;12.10;;
67981;SDS011;64109;52.148;4.466;2023-02-15T01:40:22;19.55;;;14.50;;
67981;SDS011;64109;52.148;4.466;2023-02-15T01:42:51;17.65;;;11.93;;
67981;SDS011;64109;52.148;4.466;2023-02-15T01:47:44;20.88;;;12.05;;
67981;SDS011;64109;52.148;4.466;2023-02-15T01:50:30;18.45;;;11.60;;
67981;SDS011;64109;52.148;4.466;2023-02-15T01:53:02;18.15;;;11.20;;
67981;SDS011;64109;52.148;4.466;2023-02-15T01:55:31;18.05;;;11.13;;
67981;SDS011;64109;52.148;4.466;2023-02-15T01:57:59;18.48;;;11.63;;
67981;SDS011;64109;52.148;4.466;2023-02-15T02:00:25;16.90;;;10.55;;
67981;SDS011;64109;52.148;4.466;2023-02-15T02:02:52;18.38;;;11.90;;
67981;SDS011;64109;52.148;4.466;2023-02-15T02:05:19;16.83;;;10.60;;
67981;SDS011;64109;52.148;4.466;2023-02-15T02:07:45;16.30;;;11.02;;
67981;SDS011;64109;52.148;4.466;2023-02-15T02:10:14;17.25;;;11.00;;
67981;SDS011;64109;52.148;4.466;2023-02-15T02:12:41;14.77;;;10.07;;
67981;SDS011;64109;52.148;4.466;2023-02-15T02:15:08;17.55;;;11.63;;
67981;SDS011;64109;52.148;4.466;2023-02-15T02:17:38;16.63;;;10.85;;
67981;SDS011;64109;52.148;4.466;2023-02-15T02:27:54;19.40;;;11.90;;
67981;SDS011;64109;52.148;4.466;2023-02-15T02:43:12;18.73;;;11.07;;
67981;SDS011;64109;52.148;4.466;2023-02-15T02:45:43;14.18;;;9.35;;
67981;SDS011;64109;52.148;4.466;2023-02-15T02:48:13;17.27;;;10.60;;
67981;SDS011;64109;52.148;4.466;2023-02-15T02:50:40;14.93;;;9.30;;
67981;SDS011;64109;52.148;4.466;2023-02-15T02:53:08;15.70;;;10.35;;
67981;SDS011;64109;52.148;4.466;2023-02-15T02:55:39;17.10;;;10.63;;
67981;SDS011;64109;52.148;4.466;2023-02-15T02:58:08;18.17;;;10.95;;
67981;SDS011;64109;52.148;4.466;2023-02-15T03:00:37;14.30;;;9.05;;
67981;SDS011;64109;52.148;4.466;2023-02-15T03:03:07;15.52;;;10.73;;
67981;SDS011;64109;52.148;4.466;2023-02-15T03:05:36;14.73;;;9.32;;
67981;SDS011;64109;52.148;4.466;2023-02-15T03:08:03;17.23;;;10.85;;
67981;SDS011;64109;52.148;4.466;2023-02-15T03:10:30;16.83;;;10.35;;
67981;SDS011;64109;52.148;4.466;2023-02-15T03:12:56;14.50;;;10.25;;
67981;SDS011;64109;52.148;4.466;2023-02-15T03:15:24;16.40;;;8.93;;
67981;SDS011;64109;52.148;4.466;2023-02-15T03:17:55;14.05;;;9.32;;
67981;SDS011;64109;52.148;4.466;2023-02-15T03:20:23;15.52;;;9.45;;
67981;SDS011;64109;52.148;4.466;2023-02-15T03:25:37;15.82;;;9.20;;
67981;SDS011;64109;52.148;4.466;2023-02-15T03:28:06;14.80;;;10.13;;
67981;SDS011;64109;52.148;4.466;2023-02-15T03:30:32;16.95;;;9.88;;
67981;SDS011;64109;52.148;4.466;2023-02-15T03:32:59;17.52;;;12.23;;
67981;SDS011;64109;52.148;4.466;2023-02-15T03:35:25;16.23;;;10.02;;
67981;SDS011;64109;52.148;4.466;2023-02-15T03:37:55;16.55;;;10.23;;
67981;SDS011;64109;52.148;4.466;2023-02-15T03:40:26;16.45;;;10.20;;
67981;SDS011;64109;52.148;4.466;2023-02-15T03:43:14;15.77;;;10.05;;
67981;SDS011;64109;52.148;4.466;2023-02-15T03:45:44;15.35;;;9.80;;
67981;SDS011;64109;52.148;4.466;2023-02-15T03:48:41;15.43;;;9.70;;
67981;SDS011;64109;52.148;4.466;2023-02-15T03:51:07;17.02;;;12.30;;
67981;SDS011;64109;52.148;4.466;2023-02-15T03:53:53;14.55;;;8.98;;
67981;SDS011;64109;52.148;4.466;2023-02-15T03:56:20;16.08;;;10.02;;
67981;SDS011;64109;52.148;4.466;2023-02-15T03:58:46;14.27;;;9.57;;
67981;SDS011;64109;52.148;4.466;2023-02-15T04:01:33;14.65;;;10.05;;
67981;SDS011;64109;52.148;4.466;2023-02-15T04:04:19;15.57;;;9.85;;
67981;SDS011;64109;52.148;4.466;2023-02-15T04:06:46;15.68;;;8.63;;
67981;SDS011;64109;52.148;4.466;2023-02-15T04:09:13;12.90;;;9.20;;
67981;SDS011;64109;52.148;4.466;2023-02-15T04:11:57;15.00;;;8.98;;
67981;SDS011;64109;52.148;4.466;2023-02-15T04:14:23;16.08;;;10.20;;
67981;SDS011;64109;52.148;4.466;2023-02-15T04:17:08;15.30;;;9.35;;
67981;SDS011;64109;52.148;4.466;2023-02-15T04:19:34;13.65;;;8.27;;
67981;SDS011;64109;52.148;4.466;2023-02-15T04:22:19;14.93;;;11.38;;
67981;SDS011;64109;52.148;4.466;2023-02-15T04:25:04;15.98;;;9.90;;
67981;SDS011;64109;52.148;4.466;2023-02-15T04:27:37;15.20;;;9.60;;
67981;SDS011;64109;52.148;4.466;2023-02-15T04:30:04;14.10;;;8.80;;
67981;SDS011;64109;52.148;4.466;2023-02-15T04:32:30;16.08;;;9.80;;
67981;SDS011;64109;52.148;4.466;2023-02-15T04:34:56;18.90;;;9.73;;
67981;SDS011;64109;52.148;4.466;2023-02-15T04:37:22;18.70;;;10.30;;
67981;SDS011;64109;52.148;4.466;2023-02-15T04:39:48;14.55;;;9.60;;
67981;SDS011;64109;52.148;4.466;2023-02-15T04:42:14;14.07;;;9.35;;
67981;SDS011;64109;52.148;4.466;2023-02-15T04:44:40;15.05;;;9.48;;
67981;SDS011;64109;52.148;4.466;2023-02-15T04:47:06;15.77;;;9.35;;
67981;SDS011;64109;52.148;4.466;2023-02-15T04:49:32;13.82;;;9.52;;
67981;SDS011;64109;52.148;4.466;2023-02-15T04:51:58;12.48;;;9.02;;
67981;SDS011;64109;52.148;4.466;2023-02-15T04:54:24;14.93;;;9.50;;
67981;SDS011;64109;52.148;4.466;2023-02-15T04:56:50;15.93;;;9.93;;
67981;SDS011;64109;52.148;4.466;2023-02-15T04:59:16;13.55;;;8.82;;
67981;SDS011;64109;52.148;4.466;2023-02-15T05:01:42;13.45;;;8.85;;
67981;SDS011;64109;52.148;4.466;2023-02-15T05:04:08;14.60;;;8.95;;
67981;SDS011;64109;52.148;4.466;2023-02-15T05:06:34;15.52;;;9.60;;
67981;SDS011;64109;52.148;4.466;2023-02-15T05:09:00;14.90;;;9.30;;
67981;SDS011;64109;52.148;4.466;2023-02-15T05:11:27;15.55;;;9.88;;
67981;SDS011;64109;52.148;4.466;2023-02-15T05:13:53;15.55;;;9.73;;
67981;SDS011;64109;52.148;4.466;2023-02-15T05:16:19;15.30;;;8.88;;
67981;SDS011;64109;52.148;4.466;2023-02-15T05:18:45;15.15;;;9.40;;
67981;SDS011;64109;52.148;4.466;2023-02-15T05:21:11;16.38;;;9.75;;
67981;SDS011;64109;52.148;4.466;2023-02-15T05:23:38;13.20;;;8.82;;
67981;SDS011;64109;52.148;4.466;2023-02-15T05:26:04;14.45;;;9.20;;
67981;SDS011;64109;52.148;4.466;2023-02-15T05:28:49;13.48;;;9.25;;
67981;SDS011;64109;52.148;4.466;2023-02-15T05:31:18;15.45;;;9.02;;
67981;SDS011;64109;52.148;4.466;2023-02-15T05:33:45;13.88;;;8.70;;
67981;SDS011;64109;52.148;4.466;2023-02-15T05:36:11;15.27;;;9.57;;
67981;SDS011;64109;52.148;4.466;2023-02-15T05:38:37;12.55;;;9.20;;
67981;SDS011;64109;52.148;4.466;2023-02-15T05:41:06;16.23;;;9.27;;
67981;SDS011;64109;52.148;4.466;2023-02-15T05:45:59;15.25;;;8.90;;
67981;SDS011;64109;52.148;4.466;2023-02-15T05:48:25;13.85;;;8.13;;
67981;SDS011;64109;52.148;4.466;2023-02-15T05:51:02;13.23;;;10.23;;
67981;SDS011;64109;52.148;4.466;2023-02-15T05:53:29;14.38;;;8.18;;
67981;SDS011;64109;52.148;4.466;2023-02-15T05:55:55;14.25;;;8.10;;
67981;SDS011;64109;52.148;4.466;2023-02-15T05:58:27;13.93;;;7.65;;
67981;SDS011;64109;52.148;4.466;2023-02-15T06:00:54;13.10;;;7.50;;
67981;SDS011;64109;52.148;4.466;2023-02-15T06:03:20;12.48;;;8.18;;
67981;SDS011;64109;52.148;4.466;2023-02-15T06:05:47;14.52;;;8.43;;
67981;SDS011;64109;52.148;4.466;2023-02-15T06:08:13;14.88;;;10.48;;
67981;SDS011;64109;52.148;4.466;2023-02-15T06:10:39;17.60;;;9.25;;
67981;SDS011;64109;52.148;4.466;2023-02-15T06:13:05;16.52;;;9.90;;
67981;SDS011;64109;52.148;4.466;2023-02-15T06:15:31;18.00;;;10.07;;
67981;SDS011;64109;52.148;4.466;2023-02-15T06:17:57;14.35;;;9.20;;
67981;SDS011;64109;52.148;4.466;2023-02-15T06:20:23;14.65;;;8.93;;
67981;SDS011;64109;52.148;4.466;2023-02-15T06:22:49;16.85;;;11.13;;
67981;SDS011;64109;52.148;4.466;2023-02-15T06:25:15;14.93;;;8.63;;
67981;SDS011;64109;52.148;4.466;2023-02-15T06:27:41;12.88;;;8.40;;
67981;SDS011;64109;52.148;4.466;2023-02-15T06:30:08;13.18;;;8.27;;
67981;SDS011;64109;52.148;4.466;2023-02-15T06:32:34;13.95;;;8.20;;
67981;SDS011;64109;52.148;4.466;2023-02-15T06:35:00;14.48;;;8.85;;
67981;SDS011;64109;52.148;4.466;2023-02-15T06:37:26;13.25;;;7.32;;
67981;SDS011;64109;52.148;4.466;2023-02-15T06:39:52;18.02;;;8.57;;
67981;SDS011;64109;52.148;4.466;2023-02-15T06:42:18;12.70;;;8.15;;
67981;SDS011;64109;52.148;4.466;2023-02-15T06:44:44;14.98;;;9.57;;
67981;SDS011;64109;52.148;4.466;2023-02-15T06:47:11;15.07;;;8.45;;
67981;SDS011;64109;52.148;4.466;2023-02-15T06:49:37;17.65;;;10.95;;
67981;SDS011;64109;52.148;4.466;2023-02-15T06:52:03;14.52;;;9.10;;
67981;SDS011;64109;52.148;4.466;2023-02-15T06:54:29;19.42;;;10.52;;
67981;SDS011;64109;52.148;4.466;2023-02-15T06:56:55;19.30;;;10.05;;
67981;SDS011;64109;52.148;4.466;2023-02-15T06:59:21;14.77;;;9.40;;
67981;SDS011;64109;52.148;4.466;2023-02-15T07:01:47;17.15;;;9.13;;
67981;SDS011;64109;52.148;4.466;2023-02-15T07:04:16;15.98;;;9.23;;
67981;SDS011;64109;52.148;4.466;2023-02-15T07:06:42;15.25;;;10.45;;
67981;SDS011;64109;52.148;4.466;2023-02-15T07:09:08;16.20;;;10.02;;
67981;SDS011;64109;52.148;4.466;2023-02-15T07:11:34;19.25;;;9.77;;
67981;SDS011;64109;52.148;4.466;2023-02-15T07:14:19;17.80;;;9.73;;
67981;SDS011;64109;52.148;4.466;2023-02-15T07:16:45;19.15;;;9.75;;
67981;SDS011;64109;52.148;4.466;2023-02-15T07:19:11;14.95;;;8.85;;
67981;SDS011;64109;52.148;4.466;2023-02-15T07:21:37;13.82;;;8.60;;
67981;SDS011;64109;52.148;4.466;2023-02-15T07:24:03;18.10;;;9.05;;
67981;SDS011;64109;52.148;4.466;2023-02-15T07:26:31;17.25;;;8.30;;
67981;SDS011;64109;52.148;4.466;2023-02-15T07:28:57;14.07;;;8.60;;
67981;SDS011;64109;52.148;4.466;2023-02-15T07:31:23;14.85;;;8.45;;
67981;SDS011;64109;52.148;4.466;2023-02-15T07:33:49;14.88;;;8.00;;
67981;SDS011;64109;52.148;4.466;2023-02-15T07:36:15;14.43;;;8.07;;
67981;SDS011;64109;52.148;4.466;2023-02-15T07:38:41;15.35;;;7.32;;
67981;SDS011;64109;52.148;4.466;2023-02-15T07:41:11;12.13;;;6.93;;
67981;SDS011;64109;52.148;4.466;2023-02-15T07:43:39;13.93;;;8.45;;
67981;SDS011;64109;52.148;4.466;2023-02-15T07:46:06;13.75;;;7.63;;
67981;SDS011;64109;52.148;4.466;2023-02-15T07:48:32;16.35;;;7.88;;
67981;SDS011;64109;52.148;4.466;2023-02-15T07:50:59;15.98;;;8.00;;
67981;SDS011;64109;52.148;4.466;2023-02-15T07:53:25;12.38;;;9.38;;
67981;SDS011;64109;52.148;4.466;2023-02-15T07:55:51;15.07;;;7.97;;
67981;SDS011;64109;52.148;4.466;2023-02-15T07:58:17;15.13;;;7.80;;
67981;SDS011;64109;52.148;4.466;2023-02-15T08:00:43;17.23;;;7.80;;
67981;SDS011;64109;52.148;4.466;2023-02-15T08:03:22;15.57;;;8.13;;
67981;SDS011;64109;52.148;4.466;2023-02-15T08:05:51;16.08;;;8.23;;
67981;SDS011;64109;52.148;4.466;2023-02-15T08:08:17;13.63;;;7.53;;
67981;SDS011;64109;52.148;4.466;2023-02-15T08:11:05;14.38;;;9.35;;
67981;SDS011;64109;52.148;4.466;2023-02-15T08:13:51;13.50;;;9.52;;
67981;SDS011;64109;52.148;4.466;2023-02-15T08:16:28;14.35;;;9.23;;
67981;SDS011;64109;52.148;4.466;2023-02-15T08:18:55;10.18;;;7.15;;
67981;SDS011;64109;52.148;4.466;2023-02-15T08:21:21;14.98;;;7.93;;
67981;SDS011;64109;52.148;4.466;2023-02-15T08:23:47;11.38;;;7.47;;
67981;SDS011;64109;52.148;4.466;2023-02-15T08:26:13;14.40;;;8.18;;
67981;SDS011;64109;52.148;4.466;2023-02-15T08:28:40;11.18;;;7.38;;
67981;SDS011;64109;52.148;4.466;2023-02-15T08:31:07;12.00;;;7.32;;
67981;SDS011;64109;52.148;4.466;2023-02-15T08:33:33;12.50;;;7.22;;
67981;SDS011;64109;52.148;4.466;2023-02-15T08:36:07;11.95;;;7.65;;
67981;SDS011;64109;52.148;4.466;2023-02-15T08:38:33;14.07;;;7.47;;
67981;SDS011;64109;52.148;4.466;2023-02-15T08:41:15;10.38;;;6.95;;
67981;SDS011;64109;52.148;4.466;2023-02-15T08:43:42;13.90;;;7.22;;
67981;SDS011;64109;52.148;4.466;2023-02-15T08:46:09;13.73;;;7.65;;
67981;SDS011;64109;52.148;4.466;2023-02-15T08:48:35;15.45;;;9.40;;
67981;SDS011;64109;52.148;4.466;2023-02-15T08:51:05;17.73;;;10.93;;
67981;SDS011;64109;52.148;4.466;2023-02-15T08:53:31;15.98;;;11.13;;
67981;SDS011;64109;52.148;4.466;2023-02-15T08:55:58;13.77;;;7.65;;
67981;SDS011;64109;52.148;4.466;2023-02-15T08:58:24;11.52;;;8.25;;
67981;SDS011;64109;52.148;4.466;2023-02-15T09:00:50;12.80;;;8.05;;
67981;SDS011;64109;52.148;4.466;2023-02-15T09:03:16;13.32;;;7.75;;
67981;SDS011;64109;52.148;4.466;2023-02-15T09:05:43;13.07;;;7.95;;
67981;SDS011;64109;52.148;4.466;2023-02-15T09:08:09;12.60;;;9.90;;
67981;SDS011;64109;52.148;4.466;2023-02-15T09:10:35;14.20;;;9.88;;
67981;SDS011;64109;52.148;4.466;2023-02-15T09:13:02;12.27;;;8.35;;
67981;SDS011;64109;52.148;4.466;2023-02-15T09:15:28;11.88;;;7.72;;
67981;SDS011;64109;52.148;4.466;2023-02-15T09:17:54;11.82;;;7.32;;
67981;SDS011;64109;52.148;4.466;2023-02-15T09:20:20;12.45;;;7.22;;
67981;SDS011;64109;52.148;4.466;2023-02-15T09:22:47;11.30;;;7.15;;
67981;SDS011;64109;52.148;4.466;2023-02-15T09:25:13;10.55;;;7.13;;
67981;SDS011;64109;52.148;4.466;2023-02-15T09:27:39;11.60;;;7.18;;
67981;SDS011;64109;52.148;4.466;2023-02-15T09:30:06;10.73;;;6.75;;
67981;SDS011;64109;52.148;4.466;2023-02-15T09:32:32;10.98;;;7.38;;
67981;SDS011;64109;52.148;4.466;2023-02-15T09:34:58;13.68;;;7.57;;
67981;SDS011;64109;52.148;4.466;2023-02-15T09:37:24;11.15;;;6.95;;
67981;SDS011;64109;52.148;4.466;2023-02-15T09:39:50;10.10;;;6.68;;
67981;SDS011;64109;52.148;4.466;2023-02-15T09:42:20;8.60;;;6.07;;
67981;SDS011;64109;52.148;4.466;2023-02-15T09:58:03;10.18;;;6.80;;
67981;SDS011;64109;52.148;4.466;2023-02-15T10:00:47;10.00;;;6.75;;
67981;SDS011;64109;52.148;4.466;2023-02-15T10:19:11;9.73;;;6.63;;
67981;SDS011;64109;52.148;4.466;2023-02-15T10:26:43;10.30;;;6.72;;
67981;SDS011;64109;52.148;4.466;2023-02-15T10:31:51;9.23;;;6.57;;
67981;SDS011;64109;52.148;4.466;2023-02-15T10:47:10;11.45;;;7.20;;
67981;SDS011;64109;52.148;4.466;2023-02-15T10:50:00;10.50;;;6.68;;
67981;SDS011;64109;52.148;4.466;2023-02-15T11:06:01;14.10;;;8.65;;
67981;SDS011;64109;52.148;4.466;2023-02-15T11:08:29;12.77;;;8.25;;
67981;SDS011;64109;52.148;4.466;2023-02-15T11:10:58;10.57;;;7.63;;
67981;SDS011;64109;52.148;4.466;2023-02-15T11:13:27;10.85;;;7.50;;
67981;SDS011;64109;52.148;4.466;2023-02-15T11:16:41;11.70;;;8.00;;
67981;SDS011;64109;52.148;4.466;2023-02-15T11:18:49;10.90;;;7.93;;
67981;SDS011;64109;52.148;4.466;2023-02-15T11:23:43;9.60;;;7.32;;
67981;SDS011;64109;52.148;4.466;2023-02-15T11:26:14;10.68;;;8.30;;
67981;SDS011;64109;52.148;4.466;2023-02-15T11:28:49;10.73;;;7.18;;
67981;SDS011;64109;52.148;4.466;2023-02-15T11:31:21;10.75;;;7.45;;
67981;SDS011;64109;52.148;4.466;2023-02-15T11:33:55;12.18;;;7.55;;
67981;SDS011;64109;52.148;4.466;2023-02-15T11:36:34;12.20;;;8.02;;
67981;SDS011;64109;52.148;4.466;2023-02-15T11:39:12;13.15;;;7.90;;
67981;SDS011;64109;52.148;4.466;2023-02-15T11:42:14;12.73;;;7.75;;
67981;SDS011;64109;52.148;4.466;2023-02-15T11:44:32;12.82;;;8.18;;
67981;SDS011;64109;52.148;4.466;2023-02-15T11:47:00;11.15;;;7.60;;
67981;SDS011;64109;52.148;4.466;2023-02-15T11:49:31;12.77;;;7.72;;
67981;SDS011;64109;52.148;4.466;2023-02-15T11:51:58;13.40;;;8.45;;
67981;SDS011;64109;52.148;4.466;2023-02-15T11:54:32;12.10;;;9.60;;
67981;SDS011;64109;52.148;4.466;2023-02-15T11:57:03;15.25;;;8.23;;
67981;SDS011;64109;52.148;4.466;2023-02-15T11:59:31;11.52;;;8.10;;
67981;SDS011;64109;52.148;4.466;2023-02-15T12:01:58;11.57;;;8.05;;
67981;SDS011;64109;52.148;4.466;2023-02-15T12:04:34;11.88;;;7.80;;
67981;SDS011;64109;52.148;4.466;2023-02-15T12:14:58;12.30;;;7.90;;
67981;SDS011;64109;52.148;4.466;2023-02-15T12:17:26;13.00;;;10.05;;
67981;SDS011;64109;52.148;4.466;2023-02-15T12:19:52;13.30;;;8.43;;
67981;SDS011;64109;52.148;4.466;2023-02-15T12:22:30;12.02;;;9.82;;
67981;SDS011;64109;52.148;4.466;2023-02-15T12:24:58;12.27;;;7.80;;
67981;SDS011;64109;52.148;4.466;2023-02-15T12:27:26;11.90;;;7.85;;
67981;SDS011;64109;52.148;4.466;2023-02-15T12:29:59;10.90;;;7.70;;
67981;SDS011;64109;52.148;4.466;2023-02-15T12:32:31;12.55;;;7.90;;
67981;SDS011;64109;52.148;4.466;2023-02-15T12:35:18;13.45;;;10.05;;
67981;SDS011;64109;52.148;4.466;2023-02-15T12:37:57;11.40;;;7.63;;
67981;SDS011;64109;52.148;4.466;2023-02-15T12:40:26;11.73;;;7.35;;
67981;SDS011;64109;52.148;4.466;2023-02-15T12:42:53;11.02;;;7.85;;
67981;SDS011;64109;52.148;4.466;2023-02-15T12:45:24;12.95;;;8.05;;
67981;SDS011;64109;52.148;4.466;2023-02-15T12:48:36;11.55;;;7.95;;
67981;SDS011;64109;52.148;4.466;2023-02-15T12:50:37;13.85;;;9.55;;
67981;SDS011;64109;52.148;4.466;2023-02-15T12:55:47;11.80;;;8.32;;
67981;SDS011;64109;52.148;4.466;2023-02-15T12:58:20;13.02;;;7.88;;
67981;SDS011;64109;52.148;4.466;2023-02-15T13:00:48;12.25;;;8.32;;
67981;SDS011;64109;52.148;4.466;2023-02-15T13:03:27;13.02;;;9.05;;
67981;SDS011;64109;52.148;4.466;2023-02-15T13:05:53;11.02;;;7.78;;
67981;SDS011;64109;52.148;4.466;2023-02-15T13:11:25;13.07;;;7.72;;
67981;SDS011;64109;52.148;4.466;2023-02-15T13:13:56;11.85;;;7.80;;
67981;SDS011;64109;52.148;4.466;2023-02-15T13:16:31;11.68;;;8.60;;
67981;SDS011;64109;52.148;4.466;2023-02-15T13:18:58;12.35;;;7.65;;
67981;SDS011;64109;52.148;4.466;2023-02-15T13:21:30;13.07;;;8.38;;
67981;SDS011;64109;52.148;4.466;2023-02-15T13:24:02;12.38;;;8.70;;
67981;SDS011;64109;52.148;4.466;2023-02-15T13:26:29;14.85;;;8.52;;
67981;SDS011;64109;52.148;4.466;2023-02-15T13:28:56;14.35;;;8.82;;
67981;SDS011;64109;52.148;4.466;2023-02-15T13:31:24;12.30;;;8.13;;
67981;SDS011;64109;52.148;4.466;2023-02-15T13:34:00;19.10;;;11.63;;
67981;SDS011;64109;52.148;4.466;2023-02-15T13:39:07;15.05;;;9.13;;
67981;SDS011;64109;52.148;4.466;2023-02-15T13:54:48;17.92;;;9.80;;
67981;SDS011;64109;52.148;4.466;2023-02-15T14:02:30;16.73;;;11.40;;
67981;SDS011;64109;52.148;4.466;2023-02-15T14:13:09;15.90;;;9.30;;
67981;SDS011;64109;52.148;4.466;2023-02-15T14:15:46;16.20;;;10.40;;
67981;SDS011;64109;52.148;4.466;2023-02-15T14:21:09;17.55;;;9.75;;
67981;SDS011;64109;52.148;4.466;2023-02-15T14:26:06;14.77;;;9.43;;
67981;SDS011;64109;52.148;4.466;2023-02-15T14:31:04;16.45;;;10.70;;
67981;SDS011;64109;52.148;4.466;2023-02-15T14:33:38;15.65;;;10.00;;
67981;SDS011;64109;52.148;4.466;2023-02-15T14:36:05;17.75;;;10.38;;
67981;SDS011;64109;52.148;4.466;2023-02-15T14:38:54;16.92;;;10.10;;
67981;SDS011;64109;52.148;4.466;2023-02-15T14:41:31;14.18;;;9.02;;
67981;SDS011;64109;52.148;4.466;2023-02-15T14:54:08;15.23;;;9.15;;
67981;SDS011;64109;52.148;4.466;2023-02-15T14:56:34;15.50;;;9.15;;
67981;SDS011;64109;52.148;4.466;2023-02-15T14:59:11;12.65;;;8.30;;
67981;SDS011;64109;52.148;4.466;2023-02-15T15:01:39;14.55;;;8.88;;
67981;SDS011;64109;52.148;4.466;2023-02-15T15:04:09;14.32;;;8.75;;
67981;SDS011;64109;52.148;4.466;2023-02-15T15:06:37;13.73;;;8.73;;
67981;SDS011;64109;52.148;4.466;2023-02-15T15:09:24;15.63;;;11.32;;
67981;SDS011;64109;52.148;4.466;2023-02-15T15:11:51;13.82;;;8.98;;
67981;SDS011;64109;52.148;4.466;2023-02-15T15:16:59;14.02;;;8.88;;
67981;SDS011;64109;52.148;4.466;2023-02-15T15:22:12;13.98;;;9.75;;
67981;SDS011;64109;52.148;4.466;2023-02-15T15:29:53;12.15;;;8.02;;
67981;SDS011;64109;52.148;4.466;2023-02-15T15:32:19;14.60;;;8.65;;
67981;SDS011;64109;52.148;4.466;2023-02-15T15:37:40;12.75;;;8.50;;
67981;SDS011;64109;52.148;4.466;2023-02-15T15:50:56;12.05;;;8.20;;
67981;SDS011;64109;52.148;4.466;2023-02-15T15:53:23;11.70;;;8.02;;
67981;SDS011;64109;52.148;4.466;2023-02-15T15:55:50;13.27;;;10.35;;
67981;SDS011;64109;52.148;4.466;2023-02-15T15:58:19;12.93;;;7.72;;
67981;SDS011;64109;52.148;4.466;2023-02-15T16:00:55;13.15;;;8.52;;
67981;SDS011;64109;52.148;4.466;2023-02-15T16:03:25;13.65;;;8.55;;
67981;SDS011;64109;52.148;4.466;2023-02-15T16:05:52;14.57;;;8.50;;
67981;SDS011;64109;52.148;4.466;2023-02-15T16:08:36;11.27;;;8.30;;
67981;SDS011;64109;52.148;4.466;2023-02-15T16:11:22;12.68;;;8.35;;
67981;SDS011;64109;52.148;4.466;2023-02-15T16:13:49;13.57;;;8.63;;
67981;SDS011;64109;52.148;4.466;2023-02-15T16:16:25;16.02;;;8.23;;
67981;SDS011;64109;52.148;4.466;2023-02-15T16:18:52;12.95;;;8.85;;
67981;SDS011;64109;52.148;4.466;2023-02-15T16:21:20;13.93;;;8.27;;
67981;SDS011;64109;52.148;4.466;2023-02-15T16:26:20;12.52;;;9.00;;
67981;SDS011;64109;52.148;4.466;2023-02-15T16:28:49;14.18;;;8.60;;
67981;SDS011;64109;52.148;4.466;2023-02-15T16:31:16;13.05;;;8.30;;
67981;SDS011;64109;52.148;4.466;2023-02-15T16:33:43;11.95;;;7.95;;
67981;SDS011;64109;52.148;4.466;2023-02-15T16:36:19;13.95;;;8.02;;
67981;SDS011;64109;52.148;4.466;2023-02-15T16:41:15;12.10;;;8.07;;
67981;SDS011;64109;52.148;4.466;2023-02-15T16:43:42;13.50;;;8.27;;
67981;SDS011;64109;52.148;4.466;2023-02-15T16:46:16;12.68;;;7.50;;
67981;SDS011;64109;52.148;4.466;2023-02-15T16:48:45;11.93;;;8.02;;
67981;SDS011;64109;52.148;4.466;2023-02-15T16:51:31;11.10;;;7.82;;
67981;SDS011;64109;52.148;4.466;2023-02-15T16:54:00;15.13;;;8.00;;
67981;SDS011;64109;52.148;4.466;2023-02-15T16:56:29;15.32;;;8.55;;
67981;SDS011;64109;52.148;4.466;2023-02-15T16:58:56;12.32;;;8.02;;
67981;SDS011;64109;52.148;4.466;2023-02-15T17:01:24;13.68;;;8.63;;
67981;SDS011;64109;52.148;4.466;2023-02-15T17:03:51;12.48;;;7.50;;
67981;SDS011;64109;52.148;4.466;2023-02-15T17:06:24;12.68;;;7.68;;
67981;SDS011;64109;52.148;4.466;2023-02-15T17:08:51;18.23;;;9.43;;
67981;SDS011;64109;52.148;4.466;2023-02-15T17:11:18;15.70;;;8.75;;
67981;SDS011;64109;52.148;4.466;2023-02-15T17:16:35;18.48;;;9.32;;
67981;SDS011;64109;52.148;4.466;2023-02-15T17:19:02;20.33;;;10.20;;
67981;SDS011;64109;52.148;4.466;2023-02-15T17:21:36;23.80;;;10.95;;
67981;SDS011;64109;52.148;4.466;2023-02-15T17:24:03;24.88;;;11.63;;
67981;SDS011;64109;52.148;4.466;2023-02-15T17:26:30;22.33;;;12.75;;
67981;SDS011;64109;52.148;4.466;2023-02-15T17:28:58;26.52;;;12.43;;
67981;SDS011;64109;52.148;4.466;2023-02-15T17:31:25;31.73;;;14.65;;
67981;SDS011;64109;52.148;4.466;2023-02-15T17:33:56;26.13;;;13.00;;
67981;SDS011;64109;52.148;4.466;2023-02-15T17:36:24;27.02;;;14.20;;
67981;SDS011;64109;52.148;4.466;2023-02-15T17:41:26;30.63;;;13.73;;
67981;SDS011;64109;52.148;4.466;2023-02-15T17:43:52;29.25;;;15.73;;
67981;SDS011;64109;52.148;4.466;2023-02-15T17:46:18;28.67;;;14.75;;
67981;SDS011;64109;52.148;4.466;2023-02-15T17:48:47;26.85;;;13.80;;
67981;SDS011;64109;52.148;4.466;2023-02-15T17:51:14;30.27;;;14.07;;